createdAt,value
2023-03-26T00:00:22.288Z,97995.81
2023-03-26T00:03:24.183Z,97988.00
2023-03-26T00:06:27.457Z,97977.63
2023-03-26T00:09:29.852Z,97974.16
2023-03-26T00:12:31.314Z,97961.16
2023-03-26T00:15:33.127Z,97964.63
2023-03-26T00:18:34.941Z,97963.75
2023-03-26T00:21:36.552Z,97957.72
2023-03-26T00:24:39.245Z,97948.19
2023-03-26T00:27:41.708Z,97949.88
2023-03-26T00:30:43.257Z,97955.06
2023-03-26T00:33:44.733Z,97941.22
2023-03-26T00:36:46.895Z,97938.59
2023-03-26T00:39:49.140Z,97936.00
2023-03-26T00:42:50.696Z,97927.38
2023-03-26T00:45:54.210Z,97918.75
2023-03-26T00:48:59.093Z,97905.78
2023-03-26T00:52:02.945Z,97911.81
2023-03-26T00:55:04.627Z,97908.34
2023-03-26T00:58:06.193Z,97909.19
2023-03-26T01:01:16.384Z,97898.81
2023-03-26T01:04:31.167Z,97902.28
2023-03-26T01:07:35.122Z,97889.31
2023-03-26T01:10:38.688Z,97884.97
2023-03-26T01:13:48.524Z,97883.25
2023-03-26T01:16:52.393Z,97881.56
2023-03-26T01:20:12.728Z,97873.72
2023-03-26T01:23:17.554Z,97880.66
2023-03-26T01:26:24.839Z,97863.38
2023-03-26T01:29:48.051Z,97856.47
2023-03-26T01:33:13.953Z,97845.22
2023-03-26T01:36:21.164Z,97828.81
2023-03-26T01:39:32.601Z,97821.88
2023-03-26T01:42:36.245Z,97811.53
2023-03-26T01:45:38.780Z,97817.53
2023-03-26T01:48:41.345Z,97805.47
2023-03-26T01:51:43.041Z,97808.06
2023-03-26T01:54:46.452Z,97795.09
2023-03-26T01:58:07.905Z,97777.81
2023-03-26T02:01:32.725Z,97776.06
2023-03-26T02:04:54.277Z,97763.97
2023-03-26T02:07:59.064Z,97751.03
2023-03-26T02:11:00.534Z,97736.31
2023-03-26T02:14:02.048Z,97730.25
2023-03-26T02:17:03.623Z,97715.56
2023-03-26T02:20:10.003Z,97715.59
2023-03-26T02:23:11.480Z,97701.75
2023-03-26T02:26:14.183Z,97705.19
2023-03-26T02:29:20.443Z,97691.38
2023-03-26T02:32:22.413Z,97686.19
2023-03-26T02:35:24.040Z,97683.59
2023-03-26T02:38:26.718Z,97683.59
2023-03-26T02:41:28.179Z,97691.38
2023-03-26T02:44:29.665Z,97681.00
2023-03-26T02:47:31.394Z,97670.63
2023-03-26T02:50:36.707Z,97668.88
2023-03-26T02:53:39.719Z,97653.31
2023-03-26T02:56:41.248Z,97646.47
2023-03-26T02:59:42.770Z,97643.88
2023-03-26T03:02:44.532Z,97642.09
2023-03-26T03:05:46.106Z,97642.13
2023-03-26T03:08:47.647Z,97640.38
2023-03-26T03:11:49.099Z,97645.53
2023-03-26T03:14:50.591Z,97636.88
2023-03-26T03:17:52.112Z,97624.81
2023-03-26T03:20:54.554Z,97608.38
2023-03-26T03:23:56.147Z,97593.69
2023-03-26T03:27:02.026Z,97608.41
2023-03-26T03:30:04.411Z,97612.75
2023-03-26T03:33:06.242Z,97605.78
2023-03-26T03:36:10.459Z,97602.31
2023-03-26T03:39:22.176Z,97595.41
2023-03-26T03:42:23.703Z,97588.50
2023-03-26T03:45:25.343Z,97585.03
2023-03-26T03:48:27.956Z,97585.06
2023-03-26T03:51:29.474Z,97593.69
2023-03-26T03:54:31.019Z,97571.22
2023-03-26T03:57:33.520Z,97550.44
2023-03-26T04:00:38.146Z,97552.22
2023-03-26T04:03:39.790Z,97533.16
2023-03-26T04:06:41.383Z,97526.25
2023-03-26T04:09:42.819Z,97538.41
2023-03-26T04:12:44.278Z,97521.91
2023-03-26T04:15:45.951Z,97517.53
2023-03-26T04:18:47.523Z,97508.84
2023-03-26T04:21:49.521Z,97497.63
2023-03-26T04:24:54.369Z,97489.78
2023-03-26T04:27:58.439Z,97478.56
2023-03-26T04:31:00.854Z,97489.78
2023-03-26T04:34:24.425Z,97494.06
2023-03-26T04:37:27.615Z,97489.72
2023-03-26T04:40:30.598Z,97494.06
2023-03-26T04:43:35.521Z,97485.47
2023-03-26T04:46:37.109Z,97479.44
2023-03-26T04:49:38.648Z,97468.25
2023-03-26T04:52:40.283Z,97469.94
2023-03-26T04:55:54.207Z,97439.72
2023-03-26T04:58:56.948Z,97425.06
2023-03-26T05:02:00.282Z,97432.03
2023-03-26T05:05:02.984Z,97416.41
2023-03-26T05:08:04.491Z,97405.16
2023-03-26T05:11:11.391Z,97407.75
2023-03-26T05:14:13.024Z,97402.56
2023-03-26T05:17:14.816Z,97386.06
2023-03-26T05:20:22.501Z,97386.94
2023-03-26T05:23:24.030Z,97393.00
2023-03-26T05:26:26.022Z,97373.16
2023-03-26T05:29:27.521Z,97373.19
2023-03-26T05:32:30.294Z,97373.19
2023-03-26T05:35:31.827Z,97355.00
2023-03-26T05:38:33.558Z,97351.50
2023-03-26T05:41:35.389Z,97358.44
2023-03-26T05:44:36.897Z,97349.81
2023-03-26T05:47:38.472Z,97358.38
2023-03-26T05:50:39.996Z,97350.59
2023-03-26T05:53:41.557Z,97344.69
2023-03-26T05:56:43.095Z,97327.44
2023-03-26T05:59:44.743Z,97301.56
2023-03-26T06:02:48.010Z,97292.97
2023-03-26T06:05:49.548Z,97290.31
2023-03-26T06:09:01.874Z,97276.41
2023-03-26T06:12:07.902Z,97278.16
2023-03-26T06:15:09.981Z,97258.22
2023-03-26T06:18:11.552Z,97253.91
2023-03-26T06:21:13.052Z,97246.03
2023-03-26T06:24:16.538Z,97234.75
2023-03-26T06:27:18.118Z,97223.41
2023-03-26T06:30:19.601Z,97215.72
2023-03-26T06:33:23.478Z,97209.66
2023-03-26T06:36:26.111Z,97220.78
2023-03-26T06:39:27.647Z,97218.31
2023-03-26T06:43:06.788Z,97206.97
2023-03-26T06:45:51.794Z,97199.09
2023-03-26T06:48:53.415Z,97185.28
2023-03-26T06:51:54.908Z,97173.88
2023-03-26T06:54:56.372Z,97184.25
2023-03-26T06:57:58.208Z,97174.88
2023-03-26T07:00:59.795Z,97184.25
2023-03-26T07:04:01.371Z,97176.44
2023-03-26T07:07:02.827Z,97170.44
2023-03-26T07:10:04.917Z,97169.59
2023-03-26T07:13:06.632Z,97176.50
2023-03-26T07:16:08.453Z,97172.78
2023-03-26T07:19:09.908Z,97161.50
2023-03-26T07:22:15.871Z,97165.03
2023-03-26T07:25:17.775Z,97161.53
2023-03-26T07:28:26.233Z,97151.16
2023-03-26T07:31:40.072Z,97152.81
2023-03-26T07:34:50.492Z,97161.66
2023-03-26T07:38:02.293Z,97144.22
2023-03-26T07:41:18.105Z,97144.13
2023-03-26T07:44:37.976Z,97149.38
2023-03-26T07:47:39.480Z,97146.78
2023-03-26T07:50:41.279Z,97148.28
2023-03-26T07:53:43.235Z,97145.66
2023-03-26T07:56:59.933Z,97157.72
2023-03-26T08:00:10.068Z,97149.69
2023-03-26T08:03:30.034Z,97158.06
2023-03-26T08:06:38.441Z,97176.84
2023-03-26T08:10:08.094Z,97196.72
2023-03-26T08:13:15.582Z,97207.69
2023-03-26T08:16:23.182Z,97203.13
2023-03-26T08:19:27.678Z,97204.00
2023-03-26T08:22:31.378Z,97209.50
2023-03-26T08:25:43.391Z,97221.19
2023-03-26T08:28:53.916Z,97231.38
2023-03-26T08:31:57.383Z,97247.91
2023-03-26T08:35:00.155Z,97252.94
2023-03-26T08:38:01.746Z,97252.75
2023-03-26T08:41:12.522Z,97276.06
2023-03-26T08:44:41.437Z,97309.00
2023-03-26T08:48:01.978Z,97321.22
2023-03-26T08:51:22.995Z,97329.94
2023-03-26T08:55:19.655Z,97337.59
2023-03-26T08:58:34.186Z,97350.91
2023-03-26T09:01:45.994Z,97351.09
2023-03-26T09:05:14.993Z,97341.09
2023-03-26T09:08:23.358Z,97343.00
2023-03-26T09:12:01.962Z,97313.59
2023-03-26T09:15:41.060Z,97328.22
2023-03-26T09:18:59.074Z,97345.16
2023-03-26T09:22:13.799Z,97367.56
2023-03-26T09:25:46.330Z,97388.50
2023-03-26T09:29:22.007Z,97404.66
2023-03-26T09:32:23.524Z,97409.66
2023-03-26T09:35:27.618Z,97409.53
2023-03-26T09:38:41.096Z,97391.53
2023-03-26T09:42:23.001Z,97407.69
2023-03-26T09:45:46.053Z,97399.31
2023-03-26T09:49:06.172Z,97398.31
2023-03-26T09:52:43.818Z,97387.69
2023-03-26T09:55:51.097Z,97388.72
2023-03-26T09:58:59.638Z,97391.25
2023-03-26T10:02:45.981Z,97397.88
2023-03-26T10:06:03.776Z,97380.47
2023-03-26T10:09:27.297Z,97379.16
2023-03-26T10:12:33.426Z,97386.97
2023-03-26T10:16:03.297Z,97391.09
2023-03-26T10:19:38.595Z,97396.84
2023-03-26T10:22:49.515Z,97401.28
2023-03-26T10:26:27.145Z,97402.50
2023-03-26T10:29:54.633Z,97424.84
2023-03-26T10:33:19.355Z,97428.72
2023-03-26T10:36:36.787Z,97428.47
2023-03-26T10:39:44.160Z,97443.25
2023-03-26T10:43:16.914Z,97451.03
2023-03-26T10:46:52.156Z,97442.41
2023-03-26T10:50:03.623Z,97444.56
2023-03-26T10:53:25.909Z,97443.53
2023-03-26T10:56:30.476Z,97435.94
2023-03-26T10:59:31.993Z,97437.00
2023-03-26T11:02:39.067Z,97437.03
2023-03-26T11:05:56.084Z,97441.69
2023-03-26T11:09:20.933Z,97437.41
2023-03-26T11:12:37.294Z,97454.00
2023-03-26T11:15:59.095Z,97427.91
2023-03-26T11:19:05.707Z,97430.75
2023-03-26T11:22:19.302Z,97430.03
2023-03-26T11:25:31.820Z,97417.56
2023-03-26T11:29:31.782Z,97417.09
2023-03-26T11:32:42.607Z,97411.66
2023-03-26T11:35:47.283Z,97408.59
2023-03-26T11:38:50.170Z,97405.34
2023-03-26T11:41:52.938Z,97409.28
2023-03-26T11:45:05.616Z,97408.06
2023-03-26T11:48:44.362Z,97404.78
2023-03-26T11:51:47.465Z,97417.06
2023-03-26T11:54:50.683Z,97406.56
2023-03-26T11:57:54.104Z,97406.03
2023-03-26T12:00:55.906Z,97405.88
2023-03-26T12:04:07.022Z,97390.91
2023-03-26T12:07:21.094Z,97394.25
2023-03-26T12:10:37.868Z,97389.97
2023-03-26T12:13:43.387Z,97388.53
2023-03-26T12:17:08.194Z,97376.09
2023-03-26T12:20:29.650Z,97366.06
2023-03-26T12:23:58.291Z,97368.63
2023-03-26T12:27:03.543Z,97355.13
2023-03-26T12:30:27.914Z,97346.72
2023-03-26T12:33:34.285Z,97338.88
2023-03-26T12:36:35.988Z,97328.22
2023-03-26T12:40:10.169Z,97320.31
2023-03-26T12:44:48.305Z,97314.50
2023-03-26T12:47:56.241Z,97307.78
2023-03-26T12:49:54.728Z,97301.47
2023-03-26T12:53:03.748Z,97301.13
2023-03-26T12:56:45.757Z,97314.81
2023-03-26T13:00:14.381Z,97336.69
2023-03-26T13:03:57.578Z,97377.59
2023-03-26T13:07:04.451Z,97384.38
2023-03-26T13:10:33.674Z,97349.03
2023-03-26T13:13:56.441Z,97328.97
2023-03-26T13:17:17.377Z,97297.63
2023-03-26T13:20:28.683Z,97279.91
2023-03-26T13:24:12.936Z,97273.25
2023-03-26T13:27:23.541Z,97256.78
2023-03-26T13:30:42.051Z,97217.19
2023-03-26T13:33:57.876Z,97215.03
2023-03-26T13:37:17.725Z,97192.63
2023-03-26T13:40:26.337Z,97173.50
2023-03-26T13:43:55.831Z,97174.44
2023-03-26T13:47:00.663Z,97167.59
2023-03-26T13:50:09.820Z,97170.78
2023-03-26T13:53:19.531Z,97179.03
2023-03-26T13:56:25.577Z,97178.03
2023-03-26T13:59:44.355Z,97177.97
2023-03-26T14:02:49.296Z,97176.72
2023-03-26T14:05:52.146Z,97187.22
2023-03-26T14:09:04.954Z,97217.34
2023-03-26T14:12:29.652Z,97202.19
2023-03-26T14:15:36.686Z,97196.50
2023-03-26T14:18:41.318Z,97205.19
2023-03-26T14:21:58.244Z,97215.56
2023-03-26T14:25:19.246Z,97198.38
2023-03-26T14:28:49.057Z,97212.25
2023-03-26T14:32:25.419Z,97222.69
2023-03-26T14:35:52.660Z,97227.16
2023-03-26T14:39:06.555Z,97240.31
2023-03-26T14:42:17.584Z,97225.59
2023-03-26T14:45:28.944Z,97232.53
2023-03-26T14:48:56.096Z,97226.41
2023-03-26T14:52:06.201Z,97203.06
2023-03-26T14:55:28.401Z,97185.66
2023-03-26T14:59:07.783Z,97168.28
2023-03-26T15:02:52.813Z,97170.56
2023-03-26T15:06:15.934Z,97167.09
2023-03-26T15:09:46.896Z,97185.25
2023-03-26T15:13:19.771Z,97171.25
2023-03-26T15:16:43.483Z,97174.69
2023-03-26T15:19:57.711Z,97175.72
2023-03-26T15:23:27.172Z,97178.78
2023-03-26T15:27:02.047Z,97177.63
2023-03-26T15:30:28.549Z,97180.25
2023-03-26T15:33:49.317Z,97192.03
2023-03-26T15:37:18.469Z,97199.94
2023-03-26T15:40:49.101Z,97210.22
2023-03-26T15:44:22.972Z,97221.56
2023-03-26T15:47:40.796Z,97218.97
2023-03-26T15:50:48.056Z,97238.75
2023-03-26T15:54:11.789Z,97244.00
2023-03-26T15:57:16.754Z,97252.75
2023-03-26T16:00:23.355Z,97257.09
2023-03-26T16:03:48.278Z,97263.97
2023-03-26T16:07:15.081Z,97281.38
2023-03-26T16:10:40.901Z,97272.72
2023-03-26T16:13:43.540Z,97277.81
2023-03-26T16:16:52.732Z,97289.13
2023-03-26T16:20:36.506Z,97289.19
2023-03-26T16:23:47.896Z,97303.00
2023-03-26T16:26:52.389Z,97297.75
2023-03-26T16:29:59.777Z,97287.44
2023-03-26T16:33:15.577Z,97292.50
2023-03-26T16:36:36.970Z,97304.63
2023-03-26T16:39:42.167Z,97301.78
2023-03-26T16:43:05.531Z,97288.78
2023-03-26T16:46:31.410Z,97299.09
2023-03-26T16:50:09.615Z,97286.16
2023-03-26T16:53:36.034Z,97279.28
2023-03-26T16:56:43.941Z,97293.19
2023-03-26T17:00:06.217Z,97280.94
2023-03-26T17:03:28.234Z,97283.53
2023-03-26T17:06:53.328Z,97282.63
2023-03-26T17:10:30.751Z,97278.28
2023-03-26T17:13:48.157Z,97277.50
2023-03-26T17:17:09.759Z,97275.75
2023-03-26T17:20:36.885Z,97273.34
2023-03-26T17:24:07.879Z,97268.03
2023-03-26T17:27:36.703Z,97266.31
2023-03-26T17:30:57.593Z,97273.31
2023-03-26T17:34:37.164Z,97271.78
2023-03-26T17:37:44.802Z,97267.41
2023-03-26T17:40:54.936Z,97257.25
2023-03-26T17:43:56.865Z,97273.78
2023-03-26T17:46:58.379Z,97257.50
2023-03-26T17:50:24.654Z,97239.19
2023-03-26T17:53:31.059Z,97248.75
2023-03-26T17:56:32.679Z,97258.31
2023-03-26T17:59:34.298Z,97272.09
2023-03-26T18:02:39.369Z,97272.78
2023-03-26T18:05:41.123Z,97275.41
2023-03-26T18:09:01.270Z,97300.41
2023-03-26T18:12:14.933Z,97315.91
2023-03-26T18:15:28.587Z,97328.84
2023-03-26T18:18:32.447Z,97330.59
2023-03-26T18:21:38.160Z,97348.81
2023-03-26T18:24:40.444Z,97341.97
2023-03-26T18:27:41.926Z,97349.75
2023-03-26T18:30:47.788Z,97355.00
2023-03-26T18:33:50.406Z,97365.38
2023-03-26T18:37:04.637Z,97366.16
2023-03-26T18:40:20.999Z,97358.47
2023-03-26T18:43:34.435Z,97356.69
2023-03-26T18:46:37.275Z,97363.66
2023-03-26T18:49:38.808Z,97346.25
2023-03-26T18:52:40.267Z,97334.25
2023-03-26T18:55:41.899Z,97326.44
2023-03-26T18:58:43.842Z,97314.41
2023-03-26T19:01:47.301Z,97309.22
2023-03-26T19:04:50.133Z,97300.63
2023-03-26T19:07:52.352Z,97289.50
2023-03-26T19:10:54.238Z,97282.69
2023-03-26T19:14:07.742Z,97276.66
2023-03-26T19:17:09.260Z,97263.75
2023-03-26T19:20:22.787Z,97270.69
2023-03-26T19:23:38.163Z,97271.50
2023-03-26T19:26:39.725Z,97269.78
2023-03-26T19:29:41.321Z,97262.84
2023-03-26T19:32:42.829Z,97253.38
2023-03-26T19:35:46.121Z,97255.13
2023-03-26T19:38:54.938Z,97245.66
2023-03-26T19:41:56.427Z,97242.28
2023-03-26T19:45:03.348Z,97239.69
2023-03-26T19:48:14.345Z,97236.22
2023-03-26T19:51:36.838Z,97231.88
2023-03-26T19:55:37.112Z,97224.88
2023-03-26T19:58:40.105Z,97224.88
2023-03-26T20:01:41.667Z,97215.53
2023-03-26T20:04:43.288Z,97215.50
2023-03-26T20:07:44.868Z,97216.22
2023-03-26T20:10:46.350Z,97225.69
2023-03-26T20:13:48.071Z,97225.78
2023-03-26T20:16:49.766Z,97221.34
2023-03-26T20:19:52.428Z,97224.94
2023-03-26T20:22:53.975Z,97217.22
2023-03-26T20:25:55.920Z,97218.88
2023-03-26T20:28:58.318Z,97224.06
2023-03-26T20:31:59.795Z,97208.53
2023-03-26T20:35:02.115Z,97224.06
2023-03-26T20:38:04.074Z,97218.88
2023-03-26T20:41:06.368Z,97212.88
2023-03-26T20:44:13.549Z,97215.44
2023-03-26T20:47:15.117Z,97213.72
2023-03-26T20:50:22.729Z,97209.44
2023-03-26T20:53:24.222Z,97199.88
2023-03-26T20:56:25.682Z,97201.59
2023-03-26T20:59:27.858Z,97204.19
2023-03-26T21:02:29.508Z,97215.28
2023-03-26T21:05:31.063Z,97217.78
2023-03-26T21:08:35.573Z,97229.78
2023-03-26T21:11:49.196Z,97246.16
2023-03-26T21:14:51.053Z,97257.41
2023-03-26T21:17:53.054Z,97261.75
2023-03-26T21:21:10.730Z,97260.78
2023-03-26T21:24:58.164Z,97275.47
2023-03-26T21:28:03.581Z,97285.81
2023-03-26T21:31:05.842Z,97292.72
2023-03-26T21:34:08.386Z,97290.16
2023-03-26T21:37:09.815Z,97292.78
2023-03-26T21:40:15.466Z,97308.31
2023-03-26T21:43:17.988Z,97307.44
2023-03-26T21:46:19.409Z,97319.47
2023-03-26T21:49:21.163Z,97320.41
2023-03-26T21:52:23.715Z,97320.44
2023-03-26T21:55:25.192Z,97321.34
2023-03-26T21:58:28.530Z,97320.53
2023-03-26T22:02:01.750Z,97322.25
2023-03-26T22:05:44.722Z,97310.22
2023-03-26T22:08:46.276Z,97305.06
2023-03-26T22:11:47.800Z,97294.72
2023-03-26T22:14:49.329Z,97302.47
2023-03-26T22:17:54.132Z,97293.00
2023-03-26T22:20:56.612Z,97305.94
2023-03-26T22:23:58.352Z,97310.34
2023-03-26T22:26:59.841Z,97314.69
2023-03-26T22:30:01.325Z,97314.81
2023-03-26T22:33:02.904Z,97323.41
2023-03-26T22:36:04.670Z,97309.63
2023-03-26T22:39:06.348Z,97315.69
2023-03-26T22:42:07.865Z,97318.31
2023-03-26T22:45:09.947Z,97319.16
2023-03-26T22:48:11.478Z,97320.00
2023-03-26T22:51:13.203Z,97319.97
2023-03-26T22:54:14.770Z,97332.09
2023-03-26T22:57:16.465Z,97337.34
2023-03-26T23:00:19.826Z,97341.63
2023-03-26T23:03:21.946Z,97346.00
2023-03-26T23:06:36.979Z,97359.78
2023-03-26T23:09:38.528Z,97361.56
2023-03-26T23:12:40.143Z,97353.78
2023-03-26T23:15:41.716Z,97359.84
2023-03-26T23:18:43.372Z,97359.06
2023-03-26T23:21:45.187Z,97354.69
2023-03-26T23:24:46.741Z,97368.50
2023-03-26T23:27:48.708Z,97382.31
2023-03-26T23:30:52.256Z,97368.47
2023-03-26T23:33:53.870Z,97376.22
2023-03-26T23:36:55.482Z,97388.31
2023-03-26T23:39:58.702Z,97382.25
2023-03-26T23:43:00.651Z,97384.84
2023-03-26T23:46:02.790Z,97402.09
2023-03-26T23:49:04.317Z,97390.03
2023-03-26T23:52:06.332Z,97410.75
2023-03-26T23:55:08.224Z,97409.91
2023-03-26T23:58:09.823Z,97409.03
